sensor_id;sensor_type;location;lat;lon;timestamp;P1;durP1;ratioP1;P2;durP2;ratioP2
19747;SDS011;10032;51.386;12.516;2022-12-18T00:01:52;48.50;;;23.93;;
19747;SDS011;10032;51.386;12.516;2022-12-18T00:04:21;38.70;;;21.43;;
19747;SDS011;10032;51.386;12.516;2022-12-18T00:06:47;43.63;;;22.00;;
19747;SDS011;10032;51.386;12.516;2022-12-18T00:09:13;37.60;;;20.17;;
19747;SDS011;10032;51.386;12.516;2022-12-18T00:11:38;36.20;;;20.43;;
19747;SDS011;10032;51.386;12.516;2022-12-18T00:14:04;39.73;;;21.90;;
19747;SDS011;10032;51.386;12.516;2022-12-18T00:16:29;33.90;;;19.90;;
19747;SDS011;10032;51.386;12.516;2022-12-18T00:18:57;40.67;;;20.80;;
19747;SDS011;10032;51.386;12.516;2022-12-18T00:21:23;34.67;;;18.77;;
19747;SDS011;10032;51.386;12.516;2022-12-18T00:23:49;35.57;;;19.70;;
19747;SDS011;10032;51.386;12.516;2022-12-18T00:26:19;35.77;;;19.60;;
19747;SDS011;10032;51.386;12.516;2022-12-18T00:28:47;35.40;;;19.30;;
19747;SDS011;10032;51.386;12.516;2022-12-18T00:31:14;35.57;;;20.67;;
19747;SDS011;10032;51.386;12.516;2022-12-18T00:33:41;39.23;;;20.80;;
19747;SDS011;10032;51.386;12.516;2022-12-18T00:36:09;32.50;;;18.50;;
19747;SDS011;10032;51.386;12.516;2022-12-18T00:38:36;35.43;;;19.20;;
19747;SDS011;10032;51.386;12.516;2022-12-18T00:41:03;34.30;;;18.77;;
19747;SDS011;10032;51.386;12.516;2022-12-18T00:43:29;36.40;;;19.27;;
19747;SDS011;10032;51.386;12.516;2022-12-18T00:45:54;32.77;;;18.60;;
19747;SDS011;10032;51.386;12.516;2022-12-18T00:48:20;33.40;;;19.23;;
19747;SDS011;10032;51.386;12.516;2022-12-18T00:50:47;31.97;;;17.80;;
19747;SDS011;10032;51.386;12.516;2022-12-18T00:53:13;32.97;;;18.30;;
19747;SDS011;10032;51.386;12.516;2022-12-18T00:55:41;35.03;;;18.60;;
19747;SDS011;10032;51.386;12.516;2022-12-18T00:58:08;31.23;;;18.03;;
19747;SDS011;10032;51.386;12.516;2022-12-18T01:00:34;35.37;;;19.90;;
19747;SDS011;10032;51.386;12.516;2022-12-18T01:03:00;30.83;;;17.20;;
19747;SDS011;10032;51.386;12.516;2022-12-18T01:05:26;32.60;;;18.33;;
19747;SDS011;10032;51.386;12.516;2022-12-18T01:07:51;35.47;;;19.83;;
19747;SDS011;10032;51.386;12.516;2022-12-18T01:10:17;38.40;;;17.80;;
19747;SDS011;10032;51.386;12.516;2022-12-18T01:12:42;34.23;;;17.53;;
19747;SDS011;10032;51.386;12.516;2022-12-18T01:15:09;30.70;;;18.20;;
19747;SDS011;10032;51.386;12.516;2022-12-18T01:17:35;38.57;;;19.83;;
19747;SDS011;10032;51.386;12.516;2022-12-18T01:20:01;31.23;;;17.47;;
19747;SDS011;10032;51.386;12.516;2022-12-18T01:22:26;40.77;;;19.63;;
19747;SDS011;10032;51.386;12.516;2022-12-18T01:24:52;33.93;;;18.67;;
19747;SDS011;10032;51.386;12.516;2022-12-18T01:27:17;30.83;;;18.03;;
19747;SDS011;10032;51.386;12.516;2022-12-18T01:29:43;33.90;;;19.70;;
19747;SDS011;10032;51.386;12.516;2022-12-18T01:32:08;33.33;;;18.40;;
19747;SDS011;10032;51.386;12.516;2022-12-18T01:34:35;35.83;;;18.43;;
19747;SDS011;10032;51.386;12.516;2022-12-18T01:37:02;33.80;;;17.97;;
19747;SDS011;10032;51.386;12.516;2022-12-18T01:39:28;34.80;;;18.43;;
19747;SDS011;10032;51.386;12.516;2022-12-18T01:41:54;31.30;;;17.67;;
19747;SDS011;10032;51.386;12.516;2022-12-18T01:47:38;35.57;;;18.37;;
19747;SDS011;10032;51.386;12.516;2022-12-18T01:52:56;40.17;;;18.50;;
19747;SDS011;10032;51.386;12.516;2022-12-18T01:55:26;34.90;;;18.80;;
19747;SDS011;10032;51.386;12.516;2022-12-18T01:57:57;37.73;;;19.80;;
19747;SDS011;10032;51.386;12.516;2022-12-18T02:00:24;35.20;;;19.87;;
19747;SDS011;10032;51.386;12.516;2022-12-18T02:02:51;41.50;;;19.43;;
19747;SDS011;10032;51.386;12.516;2022-12-18T02:05:19;42.17;;;20.63;;
19747;SDS011;10032;51.386;12.516;2022-12-18T02:10:45;44.60;;;19.70;;
19747;SDS011;10032;51.386;12.516;2022-12-18T02:14:02;34.77;;;17.90;;
19747;SDS011;10032;51.386;12.516;2022-12-18T02:18:41;39.40;;;20.53;;
19747;SDS011;10032;51.386;12.516;2022-12-18T02:24:52;35.53;;;18.63;;
19747;SDS011;10032;51.386;12.516;2022-12-18T02:26:50;37.97;;;17.77;;
19747;SDS011;10032;51.386;12.516;2022-12-18T02:29:21;41.27;;;22.17;;
19747;SDS011;10032;51.386;12.516;2022-12-18T02:31:52;39.07;;;21.37;;
19747;SDS011;10032;51.386;12.516;2022-12-18T02:34:21;41.03;;;20.97;;
19747;SDS011;10032;51.386;12.516;2022-12-18T02:36:51;39.90;;;21.07;;
19747;SDS011;10032;51.386;12.516;2022-12-18T02:39:19;38.87;;;20.67;;
19747;SDS011;10032;51.386;12.516;2022-12-18T02:41:47;37.10;;;19.77;;
19747;SDS011;10032;51.386;12.516;2022-12-18T02:44:13;41.93;;;20.90;;
19747;SDS011;10032;51.386;12.516;2022-12-18T02:46:41;39.43;;;20.97;;
19747;SDS011;10032;51.386;12.516;2022-12-18T03:00:29;33.37;;;18.30;;
19747;SDS011;10032;51.386;12.516;2022-12-18T03:03:06;35.20;;;19.30;;
19747;SDS011;10032;51.386;12.516;2022-12-18T03:08:23;37.83;;;20.33;;
19747;SDS011;10032;51.386;12.516;2022-12-18T03:10:53;32.83;;;18.87;;
19747;SDS011;10032;51.386;12.516;2022-12-18T03:13:31;34.67;;;18.60;;
19747;SDS011;10032;51.386;12.516;2022-12-18T03:16:20;33.03;;;19.30;;
19747;SDS011;10032;51.386;12.516;2022-12-18T03:18:54;32.60;;;17.60;;
19747;SDS011;10032;51.386;12.516;2022-12-18T03:21:28;32.57;;;17.03;;
19747;SDS011;10032;51.386;12.516;2022-12-18T03:24:15;32.23;;;19.57;;
19747;SDS011;10032;51.386;12.516;2022-12-18T03:26:44;29.30;;;17.60;;
19747;SDS011;10032;51.386;12.516;2022-12-18T03:29:22;39.13;;;17.53;;
19747;SDS011;10032;51.386;12.516;2022-12-18T03:31:54;33.07;;;18.80;;
19747;SDS011;10032;51.386;12.516;2022-12-18T03:34:26;30.23;;;16.70;;
19747;SDS011;10032;51.386;12.516;2022-12-18T03:36:56;36.10;;;18.43;;
19747;SDS011;10032;51.386;12.516;2022-12-18T03:39:22;34.23;;;18.63;;
19747;SDS011;10032;51.386;12.516;2022-12-18T03:44:32;33.10;;;17.57;;
19747;SDS011;10032;51.386;12.516;2022-12-18T03:47:06;35.37;;;17.10;;
19747;SDS011;10032;51.386;12.516;2022-12-18T03:55:17;38.00;;;19.67;;
19747;SDS011;10032;51.386;12.516;2022-12-18T03:57:45;32.97;;;19.00;;
19747;SDS011;10032;51.386;12.516;2022-12-18T04:00:13;32.33;;;17.23;;
19747;SDS011;10032;51.386;12.516;2022-12-18T04:02:51;32.93;;;16.63;;
19747;SDS011;10032;51.386;12.516;2022-12-18T04:05:20;31.40;;;17.50;;
19747;SDS011;10032;51.386;12.516;2022-12-18T04:07:47;29.60;;;16.97;;
19747;SDS011;10032;51.386;12.516;2022-12-18T04:10:14;32.67;;;19.90;;
19747;SDS011;10032;51.386;12.516;2022-12-18T04:12:41;28.87;;;16.93;;
19747;SDS011;10032;51.386;12.516;2022-12-18T04:15:07;31.40;;;17.80;;
19747;SDS011;10032;51.386;12.516;2022-12-18T04:17:33;37.70;;;17.70;;
19747;SDS011;10032;51.386;12.516;2022-12-18T04:19:58;30.53;;;15.97;;
19747;SDS011;10032;51.386;12.516;2022-12-18T04:22:24;31.30;;;17.33;;
19747;SDS011;10032;51.386;12.516;2022-12-18T04:24:49;27.07;;;16.70;;
19747;SDS011;10032;51.386;12.516;2022-12-18T04:27:15;34.73;;;18.27;;
19747;SDS011;10032;51.386;12.516;2022-12-18T04:29:40;27.47;;;16.33;;
19747;SDS011;10032;51.386;12.516;2022-12-18T04:32:06;36.00;;;17.57;;
19747;SDS011;10032;51.386;12.516;2022-12-18T04:34:32;37.07;;;18.50;;
19747;SDS011;10032;51.386;12.516;2022-12-18T04:36:58;27.87;;;16.63;;
19747;SDS011;10032;51.386;12.516;2022-12-18T04:39:23;34.20;;;17.07;;
19747;SDS011;10032;51.386;12.516;2022-12-18T04:41:49;31.70;;;16.57;;
19747;SDS011;10032;51.386;12.516;2022-12-18T04:44:14;32.30;;;17.17;;
19747;SDS011;10032;51.386;12.516;2022-12-18T04:46:40;34.53;;;18.60;;
19747;SDS011;10032;51.386;12.516;2022-12-18T04:49:05;29.20;;;16.33;;
19747;SDS011;10032;51.386;12.516;2022-12-18T04:51:30;28.77;;;16.70;;
19747;SDS011;10032;51.386;12.516;2022-12-18T04:53:56;36.57;;;19.20;;
19747;SDS011;10032;51.386;12.516;2022-12-18T04:56:21;30.27;;;16.13;;
19747;SDS011;10032;51.386;12.516;2022-12-18T04:58:47;26.30;;;16.20;;
19747;SDS011;10032;51.386;12.516;2022-12-18T05:01:13;26.13;;;17.30;;
19747;SDS011;10032;51.386;12.516;2022-12-18T05:03:40;31.37;;;18.60;;
19747;SDS011;10032;51.386;12.516;2022-12-18T05:06:06;31.70;;;17.40;;
19747;SDS011;10032;51.386;12.516;2022-12-18T05:08:32;28.47;;;16.40;;
19747;SDS011;10032;51.386;12.516;2022-12-18T05:11:01;31.00;;;18.63;;
19747;SDS011;10032;51.386;12.516;2022-12-18T05:13:28;33.37;;;18.23;;
19747;SDS011;10032;51.386;12.516;2022-12-18T05:15:55;32.03;;;18.10;;
19747;SDS011;10032;51.386;12.516;2022-12-18T05:18:21;30.87;;;18.10;;
19747;SDS011;10032;51.386;12.516;2022-12-18T05:20:50;30.47;;;17.67;;
19747;SDS011;10032;51.386;12.516;2022-12-18T05:23:16;32.20;;;18.20;;
19747;SDS011;10032;51.386;12.516;2022-12-18T05:25:42;29.07;;;16.47;;
19747;SDS011;10032;51.386;12.516;2022-12-18T05:28:19;27.43;;;15.90;;
19747;SDS011;10032;51.386;12.516;2022-12-18T05:30:49;31.93;;;17.50;;
19747;SDS011;10032;51.386;12.516;2022-12-18T05:33:16;33.63;;;18.87;;
19747;SDS011;10032;51.386;12.516;2022-12-18T05:35:41;32.53;;;18.27;;
19747;SDS011;10032;51.386;12.516;2022-12-18T05:38:07;31.67;;;17.17;;
19747;SDS011;10032;51.386;12.516;2022-12-18T05:40:32;30.93;;;16.53;;
19747;SDS011;10032;51.386;12.516;2022-12-18T05:42:58;31.30;;;16.83;;
19747;SDS011;10032;51.386;12.516;2022-12-18T05:45:23;30.20;;;16.40;;
19747;SDS011;10032;51.386;12.516;2022-12-18T05:47:49;26.67;;;14.73;;
19747;SDS011;10032;51.386;12.516;2022-12-18T05:50:14;30.17;;;15.77;;
19747;SDS011;10032;51.386;12.516;2022-12-18T05:52:40;28.13;;;16.93;;
19747;SDS011;10032;51.386;12.516;2022-12-18T05:55:06;29.03;;;15.70;;
19747;SDS011;10032;51.386;12.516;2022-12-18T05:57:31;25.10;;;15.83;;
19747;SDS011;10032;51.386;12.516;2022-12-18T05:59:57;28.87;;;16.03;;
19747;SDS011;10032;51.386;12.516;2022-12-18T06:02:22;26.23;;;16.20;;
19747;SDS011;10032;51.386;12.516;2022-12-18T06:04:47;29.43;;;16.37;;
19747;SDS011;10032;51.386;12.516;2022-12-18T06:07:13;29.20;;;16.87;;
19747;SDS011;10032;51.386;12.516;2022-12-18T06:09:38;29.80;;;16.83;;
19747;SDS011;10032;51.386;12.516;2022-12-18T06:12:04;32.90;;;15.33;;
19747;SDS011;10032;51.386;12.516;2022-12-18T06:14:29;24.20;;;15.43;;
19747;SDS011;10032;51.386;12.516;2022-12-18T06:16:55;27.70;;;15.40;;
19747;SDS011;10032;51.386;12.516;2022-12-18T06:19:21;31.23;;;15.43;;
19747;SDS011;10032;51.386;12.516;2022-12-18T06:21:46;25.70;;;15.00;;
19747;SDS011;10032;51.386;12.516;2022-12-18T06:24:12;26.93;;;15.23;;
19747;SDS011;10032;51.386;12.516;2022-12-18T06:26:40;28.20;;;15.17;;
19747;SDS011;10032;51.386;12.516;2022-12-18T06:29:06;28.77;;;15.00;;
19747;SDS011;10032;51.386;12.516;2022-12-18T06:31:31;28.40;;;16.33;;
19747;SDS011;10032;51.386;12.516;2022-12-18T06:33:57;29.27;;;16.53;;
19747;SDS011;10032;51.386;12.516;2022-12-18T06:36:22;31.77;;;17.33;;
19747;SDS011;10032;51.386;12.516;2022-12-18T06:38:48;32.67;;;16.80;;
19747;SDS011;10032;51.386;12.516;2022-12-18T06:41:14;30.77;;;16.47;;
19747;SDS011;10032;51.386;12.516;2022-12-18T06:43:42;31.10;;;18.77;;
19747;SDS011;10032;51.386;12.516;2022-12-18T06:46:08;43.73;;;25.77;;
19747;SDS011;10032;51.386;12.516;2022-12-18T06:48:33;42.27;;;21.10;;
19747;SDS011;10032;51.386;12.516;2022-12-18T06:51:02;25.60;;;16.47;;
19747;SDS011;10032;51.386;12.516;2022-12-18T06:53:27;29.90;;;16.70;;
19747;SDS011;10032;51.386;12.516;2022-12-18T06:55:59;29.13;;;15.27;;
19747;SDS011;10032;51.386;12.516;2022-12-18T06:58:25;28.10;;;15.73;;
19747;SDS011;10032;51.386;12.516;2022-12-18T07:00:52;25.10;;;13.60;;
19747;SDS011;10032;51.386;12.516;2022-12-18T07:03:23;23.73;;;14.53;;
19747;SDS011;10032;51.386;12.516;2022-12-18T07:05:49;29.00;;;15.23;;
19747;SDS011;10032;51.386;12.516;2022-12-18T07:08:14;25.27;;;14.37;;
19747;SDS011;10032;51.386;12.516;2022-12-18T07:10:41;26.03;;;14.33;;
19747;SDS011;10032;51.386;12.516;2022-12-18T07:13:07;27.07;;;15.57;;
19747;SDS011;10032;51.386;12.516;2022-12-18T07:15:34;35.00;;;17.23;;
19747;SDS011;10032;51.386;12.516;2022-12-18T07:18:00;29.83;;;18.17;;
19747;SDS011;10032;51.386;12.516;2022-12-18T07:20:25;41.10;;;22.47;;
19747;SDS011;10032;51.386;12.516;2022-12-18T07:22:51;88.10;;;44.90;;
19747;SDS011;10032;51.386;12.516;2022-12-18T07:25:16;94.20;;;45.97;;
19747;SDS011;10032;51.386;12.516;2022-12-18T07:27:41;74.80;;;37.70;;
19747;SDS011;10032;51.386;12.516;2022-12-18T07:30:10;59.83;;;32.93;;
19747;SDS011;10032;51.386;12.516;2022-12-18T07:32:36;43.93;;;24.63;;
19747;SDS011;10032;51.386;12.516;2022-12-18T07:35:02;37.97;;;20.77;;
19747;SDS011;10032;51.386;12.516;2022-12-18T07:37:27;42.73;;;22.60;;
19747;SDS011;10032;51.386;12.516;2022-12-18T07:39:53;34.00;;;22.97;;
19747;SDS011;10032;51.386;12.516;2022-12-18T07:42:18;32.13;;;18.47;;
19747;SDS011;10032;51.386;12.516;2022-12-18T07:44:55;70.07;;;35.10;;
19747;SDS011;10032;51.386;12.516;2022-12-18T07:47:21;100.93;;;42.50;;
19747;SDS011;10032;51.386;12.516;2022-12-18T07:49:47;54.90;;;27.07;;
19747;SDS011;10032;51.386;12.516;2022-12-18T07:52:12;38.47;;;20.70;;
19747;SDS011;10032;51.386;12.516;2022-12-18T07:54:38;35.77;;;16.97;;
19747;SDS011;10032;51.386;12.516;2022-12-18T07:57:04;34.20;;;18.30;;
19747;SDS011;10032;51.386;12.516;2022-12-18T07:59:29;25.00;;;14.70;;
19747;SDS011;10032;51.386;12.516;2022-12-18T08:01:54;27.53;;;16.07;;
19747;SDS011;10032;51.386;12.516;2022-12-18T08:04:20;26.87;;;15.27;;
19747;SDS011;10032;51.386;12.516;2022-12-18T08:06:45;27.60;;;17.93;;
19747;SDS011;10032;51.386;12.516;2022-12-18T08:09:14;30.27;;;16.10;;
19747;SDS011;10032;51.386;12.516;2022-12-18T08:11:39;27.90;;;16.30;;
19747;SDS011;10032;51.386;12.516;2022-12-18T08:14:05;26.23;;;15.17;;
19747;SDS011;10032;51.386;12.516;2022-12-18T08:16:33;30.00;;;16.27;;
19747;SDS011;10032;51.386;12.516;2022-12-18T08:18:59;28.80;;;16.87;;
19747;SDS011;10032;51.386;12.516;2022-12-18T08:21:26;22.33;;;13.33;;
19747;SDS011;10032;51.386;12.516;2022-12-18T08:23:53;22.47;;;13.30;;
19747;SDS011;10032;51.386;12.516;2022-12-18T08:26:20;19.80;;;14.13;;
19747;SDS011;10032;51.386;12.516;2022-12-18T08:28:47;29.63;;;17.03;;
19747;SDS011;10032;51.386;12.516;2022-12-18T08:31:13;26.57;;;13.47;;
19747;SDS011;10032;51.386;12.516;2022-12-18T08:33:40;27.83;;;14.20;;
19747;SDS011;10032;51.386;12.516;2022-12-18T08:36:06;26.03;;;13.90;;
19747;SDS011;10032;51.386;12.516;2022-12-18T08:38:33;19.73;;;12.10;;
19747;SDS011;10032;51.386;12.516;2022-12-18T08:41:02;25.10;;;14.10;;
19747;SDS011;10032;51.386;12.516;2022-12-18T08:43:30;21.87;;;13.87;;
19747;SDS011;10032;51.386;12.516;2022-12-18T08:46:15;24.57;;;13.67;;
19747;SDS011;10032;51.386;12.516;2022-12-18T08:48:42;20.77;;;12.03;;
19747;SDS011;10032;51.386;12.516;2022-12-18T08:51:10;21.50;;;12.53;;
19747;SDS011;10032;51.386;12.516;2022-12-18T08:53:36;22.17;;;13.07;;
19747;SDS011;10032;51.386;12.516;2022-12-18T08:56:07;22.03;;;13.70;;
19747;SDS011;10032;51.386;12.516;2022-12-18T08:58:32;27.40;;;15.37;;
19747;SDS011;10032;51.386;12.516;2022-12-18T09:01:01;21.37;;;13.67;;
19747;SDS011;10032;51.386;12.516;2022-12-18T09:03:30;25.53;;;15.03;;
19747;SDS011;10032;51.386;12.516;2022-12-18T09:05:56;20.73;;;12.43;;
19747;SDS011;10032;51.386;12.516;2022-12-18T09:08:22;25.23;;;14.60;;
19747;SDS011;10032;51.386;12.516;2022-12-18T09:11:09;19.47;;;12.40;;
19747;SDS011;10032;51.386;12.516;2022-12-18T09:13:52;19.47;;;10.67;;
19747;SDS011;10032;51.386;12.516;2022-12-18T09:16:18;18.43;;;11.50;;
19747;SDS011;10032;51.386;12.516;2022-12-18T09:18:47;27.77;;;20.50;;
19747;SDS011;10032;51.386;12.516;2022-12-18T09:21:14;30.20;;;20.67;;
19747;SDS011;10032;51.386;12.516;2022-12-18T09:23:41;25.00;;;15.80;;
19747;SDS011;10032;51.386;12.516;2022-12-18T09:26:12;23.47;;;14.17;;
19747;SDS011;10032;51.386;12.516;2022-12-18T09:28:38;20.90;;;13.20;;
19747;SDS011;10032;51.386;12.516;2022-12-18T09:31:10;20.33;;;12.67;;
19747;SDS011;10032;51.386;12.516;2022-12-18T09:33:40;18.53;;;10.53;;
19747;SDS011;10032;51.386;12.516;2022-12-18T09:36:06;21.87;;;11.73;;
19747;SDS011;10032;51.386;12.516;2022-12-18T09:38:40;22.40;;;13.17;;
19747;SDS011;10032;51.386;12.516;2022-12-18T09:44:32;23.97;;;12.13;;
19747;SDS011;10032;51.386;12.516;2022-12-18T09:49:46;17.33;;;11.13;;
19747;SDS011;10032;51.386;12.516;2022-12-18T09:57:48;17.17;;;11.23;;
19747;SDS011;10032;51.386;12.516;2022-12-18T10:00:27;15.83;;;10.27;;
19747;SDS011;10032;51.386;12.516;2022-12-18T10:02:56;15.47;;;9.90;;
19747;SDS011;10032;51.386;12.516;2022-12-18T10:05:39;19.13;;;11.10;;
19747;SDS011;10032;51.386;12.516;2022-12-18T10:08:17;20.13;;;12.33;;
19747;SDS011;10032;51.386;12.516;2022-12-18T10:11:16;26.20;;;14.73;;
19747;SDS011;10032;51.386;12.516;2022-12-18T10:14:08;21.87;;;14.53;;
19747;SDS011;10032;51.386;12.516;2022-12-18T10:19:54;21.13;;;13.57;;
19747;SDS011;10032;51.386;12.516;2022-12-18T10:28:17;24.73;;;14.47;;
19747;SDS011;10032;51.386;12.516;2022-12-18T10:30:46;22.67;;;14.03;;
19747;SDS011;10032;51.386;12.516;2022-12-18T10:33:16;23.67;;;13.13;;
19747;SDS011;10032;51.386;12.516;2022-12-18T10:35:55;22.87;;;13.03;;
19747;SDS011;10032;51.386;12.516;2022-12-18T10:38:31;22.77;;;13.07;;
19747;SDS011;10032;51.386;12.516;2022-12-18T10:41:23;22.17;;;13.57;;
19747;SDS011;10032;51.386;12.516;2022-12-18T10:44:10;21.50;;;13.17;;
19747;SDS011;10032;51.386;12.516;2022-12-18T10:46:39;19.40;;;12.97;;
19747;SDS011;10032;51.386;12.516;2022-12-18T10:49:07;21.10;;;12.40;;
19747;SDS011;10032;51.386;12.516;2022-12-18T10:51:44;19.40;;;12.37;;
19747;SDS011;10032;51.386;12.516;2022-12-18T10:54:17;19.27;;;13.17;;
19747;SDS011;10032;51.386;12.516;2022-12-18T10:56:49;19.83;;;11.57;;
19747;SDS011;10032;51.386;12.516;2022-12-18T10:59:17;19.90;;;11.17;;
19747;SDS011;10032;51.386;12.516;2022-12-18T11:01:50;23.33;;;13.17;;
19747;SDS011;10032;51.386;12.516;2022-12-18T11:04:23;17.73;;;10.87;;
19747;SDS011;10032;51.386;12.516;2022-12-18T11:06:54;20.00;;;11.20;;
19747;SDS011;10032;51.386;12.516;2022-12-18T11:09:31;14.37;;;10.70;;
19747;SDS011;10032;51.386;12.516;2022-12-18T11:12:01;19.80;;;11.67;;
19747;SDS011;10032;51.386;12.516;2022-12-18T11:14:51;25.37;;;14.97;;
19747;SDS011;10032;51.386;12.516;2022-12-18T11:17:28;21.40;;;12.53;;
19747;SDS011;10032;51.386;12.516;2022-12-18T11:19:57;17.67;;;10.93;;
19747;SDS011;10032;51.386;12.516;2022-12-18T11:22:35;17.07;;;10.17;;
19747;SDS011;10032;51.386;12.516;2022-12-18T11:25:05;20.47;;;11.40;;
19747;SDS011;10032;51.386;12.516;2022-12-18T11:27:51;15.00;;;10.30;;
19747;SDS011;10032;51.386;12.516;2022-12-18T11:30:28;21.17;;;10.27;;
19747;SDS011;10032;51.386;12.516;2022-12-18T11:35:51;17.20;;;9.80;;
19747;SDS011;10032;51.386;12.516;2022-12-18T11:38:25;18.03;;;10.37;;
19747;SDS011;10032;51.386;12.516;2022-12-18T11:41:02;14.43;;;9.27;;
19747;SDS011;10032;51.386;12.516;2022-12-18T11:43:41;16.20;;;10.00;;
19747;SDS011;10032;51.386;12.516;2022-12-18T11:46:23;17.20;;;10.10;;
19747;SDS011;10032;51.386;12.516;2022-12-18T11:51:33;15.73;;;10.03;;
19747;SDS011;10032;51.386;12.516;2022-12-18T11:54:12;18.73;;;10.80;;
19747;SDS011;10032;51.386;12.516;2022-12-18T11:56:49;17.63;;;10.07;;
19747;SDS011;10032;51.386;12.516;2022-12-18T12:15:46;21.40;;;12.20;;
19747;SDS011;10032;51.386;12.516;2022-12-18T12:21:28;20.63;;;12.23;;
19747;SDS011;10032;51.386;12.516;2022-12-18T12:30:08;25.67;;;13.70;;
19747;SDS011;10032;51.386;12.516;2022-12-18T12:35:29;25.93;;;12.80;;
19747;SDS011;10032;51.386;12.516;2022-12-18T12:38:24;18.20;;;11.10;;
19747;SDS011;10032;51.386;12.516;2022-12-18T12:41:03;22.50;;;12.97;;
19747;SDS011;10032;51.386;12.516;2022-12-18T12:43:38;22.13;;;11.50;;
19747;SDS011;10032;51.386;12.516;2022-12-18T12:46:11;25.93;;;13.57;;
19747;SDS011;10032;51.386;12.516;2022-12-18T12:51:13;20.40;;;12.47;;
19747;SDS011;10032;51.386;12.516;2022-12-18T12:53:59;21.80;;;13.33;;
19747;SDS011;10032;51.386;12.516;2022-12-18T12:56:39;22.10;;;12.80;;
19747;SDS011;10032;51.386;12.516;2022-12-18T13:04:58;24.83;;;14.20;;
19747;SDS011;10032;51.386;12.516;2022-12-18T13:07:33;25.40;;;13.53;;
19747;SDS011;10032;51.386;12.516;2022-12-18T13:10:11;25.03;;;13.77;;
19747;SDS011;10032;51.386;12.516;2022-12-18T13:23:48;23.90;;;12.57;;
19747;SDS011;10032;51.386;12.516;2022-12-18T13:31:11;25.13;;;13.03;;
19747;SDS011;10032;51.386;12.516;2022-12-18T13:33:39;25.20;;;13.80;;
19747;SDS011;10032;51.386;12.516;2022-12-18T13:41:36;24.07;;;13.63;;
19747;SDS011;10032;51.386;12.516;2022-12-18T13:46:43;23.60;;;12.70;;
19747;SDS011;10032;51.386;12.516;2022-12-18T13:51:56;23.20;;;13.70;;
19747;SDS011;10032;51.386;12.516;2022-12-18T13:54:35;19.97;;;12.00;;
19747;SDS011;10032;51.386;12.516;2022-12-18T13:57:02;28.33;;;14.17;;
19747;SDS011;10032;51.386;12.516;2022-12-18T13:59:39;28.33;;;14.23;;
19747;SDS011;10032;51.386;12.516;2022-12-18T14:02:14;25.80;;;14.23;;
19747;SDS011;10032;51.386;12.516;2022-12-18T14:04:44;25.00;;;14.10;;
19747;SDS011;10032;51.386;12.516;2022-12-18T14:07:24;27.80;;;15.00;;
19747;SDS011;10032;51.386;12.516;2022-12-18T14:09:52;22.30;;;13.33;;
19747;SDS011;10032;51.386;12.516;2022-12-18T14:12:25;27.60;;;14.00;;
19747;SDS011;10032;51.386;12.516;2022-12-18T14:15:20;28.97;;;15.67;;
19747;SDS011;10032;51.386;12.516;2022-12-18T14:20:32;24.50;;;14.33;;
19747;SDS011;10032;51.386;12.516;2022-12-18T14:22:59;23.30;;;13.43;;
19747;SDS011;10032;51.386;12.516;2022-12-18T14:25:27;24.27;;;14.60;;
19747;SDS011;10032;51.386;12.516;2022-12-18T14:28:04;29.40;;;15.43;;
19747;SDS011;10032;51.386;12.516;2022-12-18T14:30:40;27.87;;;15.20;;
19747;SDS011;10032;51.386;12.516;2022-12-18T14:33:12;30.03;;;15.57;;
19747;SDS011;10032;51.386;12.516;2022-12-18T14:36:05;27.83;;;14.80;;
19747;SDS011;10032;51.386;12.516;2022-12-18T14:38:30;25.17;;;14.63;;
19747;SDS011;10032;51.386;12.516;2022-12-18T14:41:10;31.10;;;16.73;;
19747;SDS011;10032;51.386;12.516;2022-12-18T14:43:38;24.00;;;14.60;;
19747;SDS011;10032;51.386;12.516;2022-12-18T14:46:28;23.63;;;13.43;;
19747;SDS011;10032;51.386;12.516;2022-12-18T14:48:54;25.10;;;13.70;;
19747;SDS011;10032;51.386;12.516;2022-12-18T14:51:24;23.60;;;14.03;;
19747;SDS011;10032;51.386;12.516;2022-12-18T14:56:31;26.60;;;14.53;;
19747;SDS011;10032;51.386;12.516;2022-12-18T14:59:00;31.90;;;16.73;;
19747;SDS011;10032;51.386;12.516;2022-12-18T15:01:38;30.53;;;18.23;;
19747;SDS011;10032;51.386;12.516;2022-12-18T15:04:23;30.03;;;17.73;;
19747;SDS011;10032;51.386;12.516;2022-12-18T15:07:39;31.47;;;16.60;;
19747;SDS011;10032;51.386;12.516;2022-12-18T15:09:40;32.13;;;16.07;;
19747;SDS011;10032;51.386;12.516;2022-12-18T15:12:22;28.77;;;16.27;;
19747;SDS011;10032;51.386;12.516;2022-12-18T15:14:53;31.90;;;18.23;;
19747;SDS011;10032;51.386;12.516;2022-12-18T15:17:19;29.00;;;16.10;;
19747;SDS011;10032;51.386;12.516;2022-12-18T15:19:47;29.77;;;17.23;;
19747;SDS011;10032;51.386;12.516;2022-12-18T15:22:18;26.90;;;15.43;;
19747;SDS011;10032;51.386;12.516;2022-12-18T15:24:46;28.37;;;15.73;;
19747;SDS011;10032;51.386;12.516;2022-12-18T15:32:51;29.73;;;16.83;;
19747;SDS011;10032;51.386;12.516;2022-12-18T15:37:45;28.43;;;15.67;;
19747;SDS011;10032;51.386;12.516;2022-12-18T15:40:21;32.03;;;17.83;;
19747;SDS011;10032;51.386;12.516;2022-12-18T15:42:47;33.63;;;17.80;;
19747;SDS011;10032;51.386;12.516;2022-12-18T15:45:32;29.80;;;18.57;;
19747;SDS011;10032;51.386;12.516;2022-12-18T15:47:58;36.23;;;19.07;;
19747;SDS011;10032;51.386;12.516;2022-12-18T15:50:23;30.00;;;17.30;;
19747;SDS011;10032;51.386;12.516;2022-12-18T15:52:50;31.63;;;19.83;;
19747;SDS011;10032;51.386;12.516;2022-12-18T15:55:21;27.83;;;17.67;;
19747;SDS011;10032;51.386;12.516;2022-12-18T15:58:08;33.90;;;18.33;;
19747;SDS011;10032;51.386;12.516;2022-12-18T16:00:35;42.47;;;22.07;;
19747;SDS011;10032;51.386;12.516;2022-12-18T16:03:02;42.63;;;22.43;;
19747;SDS011;10032;51.386;12.516;2022-12-18T16:05:28;35.43;;;21.30;;
19747;SDS011;10032;51.386;12.516;2022-12-18T16:07:54;40.13;;;21.70;;
19747;SDS011;10032;51.386;12.516;2022-12-18T16:10:20;36.20;;;20.50;;
19747;SDS011;10032;51.386;12.516;2022-12-18T16:12:45;39.80;;;20.37;;
19747;SDS011;10032;51.386;12.516;2022-12-18T16:15:12;37.23;;;21.67;;
19747;SDS011;10032;51.386;12.516;2022-12-18T16:17:41;40.17;;;23.10;;
19747;SDS011;10032;51.386;12.516;2022-12-18T16:20:18;32.03;;;19.63;;
19747;SDS011;10032;51.386;12.516;2022-12-18T16:22:45;31.50;;;17.73;;
19747;SDS011;10032;51.386;12.516;2022-12-18T16:25:21;37.70;;;19.13;;
19747;SDS011;10032;51.386;12.516;2022-12-18T16:27:53;35.07;;;20.33;;
19747;SDS011;10032;51.386;12.516;2022-12-18T16:30:27;39.93;;;22.10;;
19747;SDS011;10032;51.386;12.516;2022-12-18T16:32:55;46.60;;;26.60;;
19747;SDS011;10032;51.386;12.516;2022-12-18T16:35:22;34.20;;;19.70;;
19747;SDS011;10032;51.386;12.516;2022-12-18T16:37:48;38.53;;;25.83;;
19747;SDS011;10032;51.386;12.516;2022-12-18T16:40:14;39.53;;;26.50;;
19747;SDS011;10032;51.386;12.516;2022-12-18T16:42:41;37.23;;;18.67;;
19747;SDS011;10032;51.386;12.516;2022-12-18T16:45:09;32.47;;;19.10;;